Hlavní strana
METAR-TAF:

METAR-TAF

Letiště :

Letiště Václava Havla Praha

Praha, Česká republika

zeměpisná šířka: 50-06N, zeměpisná délka: 014-15E, výška: 365 m

Aktuální stav počasí

Zpráva byla vytvořena před 18 minutami, v 15:30 UTC
Severovýchodní vítr 4 kt, proměnlivý mezi severním a východním
Teplota 10°C
Vlhkost vzduchu 32%
Tlak 1032 hPa
Viditelnost 10 km a více
Žádná oblačnost pod 1500 m, nevyskytují se cumulonimby.

METAR: LKPR 201530Z 05004KT 360V090 CAVOK 10/M06 Q1032 NOSIG

Čas: 16:48 (15:48 UTC)

Předpověď počasí

Zpráva byla vytvořena před 4 hodinami a 48 minutami, v 11:00 UTC
Předpověď platná od 20 v 12 UTC do 21 v 18 UTC
Severní vítr 6 kt
Viditelnost 10 km a více
Žádná oblačnost pod 1500 m, nevyskytují se cumulonimby.
Změna
od 20 v 18 UTC do 20 v 21 UTC
Jižní vítr 5 kt
Dočasný
od 21 v 03 UTC do 21 v 09 UTC
Polojasno ve výšce 3800 ft

TAF: LKPR 201100Z 2012/2118 36006KT CAVOK BECMG 2018/2021 19005KT TEMPO 2103/2109 SCT038

Stav a předpovědi počasí z více než 4 000 letišť (zprávy METAR a TAF).

Červené a žluté tečky na mapě představují dostupné meteorologické stanice.

Když kurzor umístíte na tečku, zobrazí se název stanice.

Pak kliknutím zobrazíte stav a předpověď počasí.

Chcete-li změnit mapu, kliknutím na zelené tlačítko se znaménkem +mapu přiblížíte, kliknutím na zelené tlačítko se znaménkem – mapu oddálíte a kliknutím na zelené šipky přejdete na sousední mapy.


METAR-TAF: